Time;durP1;ratioP1;P1;durP2;ratioP2;P2;SDS_P1;SDS_P2;PMS_P1;PMS_P2;Temp;Humidity;BMP_temperature;BMP_pressure;BME280_temperature;BME280_humidity;BME280_pressure;Samples;Min_cycle;Max_cycle;Signal;HPM_P1;HPM_P2
2022/03/28 00:00:10;;;;;;;0.60;0.60;;;5.30;99.90;;;;;;5032928;28;20221;-68
2022/03/28 00:02:40;;;;;;;0.63;0.63;;;5.30;99.90;;;;;;5033708;28;20228;-68
2022/03/28 00:05:07;;;;;;;0.70;0.70;;;5.30;99.90;;;;;;5033712;28;20665;-68
2022/03/28 00:07:32;;;;;;;0.70;0.70;;;5.30;99.90;;;;;;5033754;28;20186;-69
2022/03/28 00:10:14;;;;;;;0.70;0.70;;;5.20;99.90;;;;;;5033705;28;20222;-69
2022/03/28 00:12:40;;;;;;;0.50;0.50;;;5.20;99.90;;;;;;5016537;28;20216;-69
2022/03/28 00:15:07;;;;;;;0.70;0.70;;;5.40;99.90;;;;;;5033883;28;20202;-69
2022/03/28 00:17:33;;;;;;;0.82;0.82;;;5.80;99.90;;;;;;5033576;28;20657;-69
2022/03/28 00:20:00;;;;;;;0.70;0.70;;;6.00;99.90;;;;;;5015941;28;20217;-68
2022/03/28 00:22:26;;;;;;;0.80;0.80;;;6.10;99.90;;;;;;5033438;28;20198;-68
2022/03/28 00:24:51;;;;;;;2.17;1.10;;;6.20;99.90;;;;;;5033636;28;20220;-68
2022/03/28 00:27:18;;;;;;;13.75;2.15;;;5.80;99.90;;;;;;5033581;28;20190;-69
2022/03/28 00:29:44;;;;;;;0.93;0.93;;;5.40;99.90;;;;;;5033129;28;20689;-68
2022/03/28 00:32:10;;;;;;;0.70;0.70;;;5.30;99.90;;;;;;5033455;28;20202;-68
2022/03/28 00:34:36;;;;;;;0.60;0.60;;;5.20;99.90;;;;;;5033310;28;20256;-68
2022/03/28 00:37:02;;;;;;;0.80;0.80;;;5.20;99.90;;;;;;5033455;28;20588;-68
2022/03/28 00:39:28;;;;;;;0.70;0.70;;;5.30;99.90;;;;;;5033135;28;20210;-68
2022/03/28 00:41:54;;;;;;;0.82;0.82;;;5.50;99.90;;;;;;5032933;28;20245;-68
2022/03/28 00:44:20;;;;;;;0.70;0.70;;;5.60;99.90;;;;;;5033215;28;20198;-69
2022/03/28 00:46:46;;;;;;;0.68;0.68;;;5.60;99.90;;;;;;5015557;28;20194;-69
2022/03/28 00:49:12;;;;;;;0.60;0.60;;;5.60;99.90;;;;;;5033281;28;20198;-68
2022/03/28 00:51:38;;;;;;;0.70;0.70;;;5.60;99.90;;;;;;5031735;28;20201;-68
2022/03/28 00:54:05;;;;;;;0.70;0.70;;;5.50;99.90;;;;;;5031905;28;20668;-69
2022/03/28 00:56:31;;;;;;;0.70;0.70;;;5.40;99.90;;;;;;5031731;28;20718;-68
2022/03/28 00:58:58;;;;;;;1.02;1.02;;;5.10;99.90;;;;;;5033151;28;20229;-68
2022/03/28 01:01:25;;;;;;;0.60;0.60;;;4.90;99.90;;;;;;5031290;28;20199;-68
2022/03/28 01:03:51;;;;;;;0.70;0.70;;;4.60;99.90;;;;;;5015256;28;20228;-68
2022/03/28 01:06:17;;;;;;;0.73;0.73;;;4.40;99.90;;;;;;5032771;28;20272;-68
2022/03/28 01:08:42;;;;;;;0.75;0.75;;;4.40;99.90;;;;;;5032809;28;20194;-68
2022/03/28 01:11:12;;;;;;;0.70;0.70;;;4.30;99.90;;;;;;5032748;28;20309;-69
2022/03/28 01:13:39;;;;;;;0.60;0.60;;;4.30;99.90;;;;;;5032768;28;20200;-68
2022/03/28 01:16:05;;;;;;;1.98;1.88;;;4.20;99.90;;;;;;5032933;28;20260;-68
2022/03/28 01:18:32;;;;;;;0.70;0.70;;;4.10;99.90;;;;;;5032713;28;20204;-68
2022/03/28 01:20:59;;;;;;;0.80;0.80;;;4.00;99.90;;;;;;5032636;28;20205;-68
2022/03/28 01:23:25;;;;;;;0.60;0.60;;;4.00;99.90;;;;;;5032589;28;20193;-68
2022/03/28 01:25:51;;;;;;;0.70;0.70;;;3.80;99.90;;;;;;5014902;28;20211;-68
2022/03/28 01:28:19;;;;;;;0.70;0.70;;;3.60;99.90;;;;;;5032746;28;20217;-68
2022/03/28 01:30:44;;;;;;;0.75;0.75;;;3.50;99.90;;;;;;5032439;28;20285;-68
2022/03/28 01:33:10;;;;;;;0.60;0.60;;;3.40;99.90;;;;;;5032656;28;20672;-69
2022/03/28 01:35:41;;;;;;;0.75;0.75;;;3.40;99.90;;;;;;5032539;28;20206;-68
2022/03/28 01:38:11;;;;;;;0.85;0.85;;;3.30;99.90;;;;;;5031119;28;20197;-68
2022/03/28 01:40:41;;;;;;;0.77;0.77;;;3.20;99.90;;;;;;5031003;28;20210;-68
2022/03/28 01:43:07;;;;;;;0.63;0.63;;;3.10;99.90;;;;;;5031201;28;20296;-68
2022/03/28 01:45:32;;;;;;;0.75;0.75;;;3.00;99.90;;;;;;5032466;28;20255;-68
2022/03/28 01:47:58;;;;;;;1.27;1.17;;;3.70;99.90;;;;;;5031340;28;20297;-68
2022/03/28 01:50:25;;;;;;;0.95;0.95;;;4.00;99.90;;;;;;5032352;28;20198;-68
2022/03/28 01:52:51;;;;;;;0.73;0.73;;;4.00;99.90;;;;;;5014798;28;20206;-68
2022/03/28 01:55:17;;;;;;;0.50;0.50;;;4.10;99.90;;;;;;5031066;28;20205;-68
2022/03/28 01:57:44;;;;;;;0.73;0.73;;;4.10;99.90;;;;;;5032023;28;20206;-68
2022/03/28 02:00:17;;;;;;;0.57;0.57;;;3.90;99.90;;;;;;5032041;28;20245;-68
2022/03/28 02:02:43;;;;;;;0.70;0.70;;;4.50;99.90;;;;;;5030585;28;20203;-68
2022/03/28 02:05:11;;;;;;;0.75;0.75;;;4.60;99.90;;;;;;5047671;28;20221;-68
2022/03/28 02:07:38;;;;;;;0.77;0.77;;;4.60;99.90;;;;;;5047626;28;20194;-68
2022/03/28 02:10:05;;;;;;;0.75;0.75;;;4.60;99.90;;;;;;5036853;28;20213;-68
2022/03/28 02:12:30;;;;;;;0.70;0.70;;;5.00;99.90;;;;;;5034165;28;20288;-68
2022/03/28 02:14:56;;;;;;;0.70;0.70;;;5.20;99.90;;;;;;5052258;28;20284;-68
2022/03/28 02:17:22;;;;;;;0.80;0.80;;;5.30;99.90;;;;;;5052009;28;20300;-68
2022/03/28 02:19:48;;;;;;;0.70;0.70;;;5.50;99.90;;;;;;5052139;28;20284;-68
2022/03/28 02:22:14;;;;;;;0.85;0.80;;;6.00;99.90;;;;;;5046760;28;20226;-69
2022/03/28 02:24:40;;;;;;;1.00;1.00;;;6.20;99.90;;;;;;5032093;28;20623;-68
2022/03/28 02:27:07;;;;;;;0.50;0.50;;;6.30;99.90;;;;;;5032159;28;20665;-68
2022/03/28 02:29:33;;;;;;;0.60;0.60;;;6.60;99.90;;;;;;5031780;28;20198;-68
2022/03/28 02:31:59;;;;;;;0.73;0.73;;;6.70;99.90;;;;;;5032270;28;20194;-68
2022/03/28 02:34:25;;;;;;;0.70;0.70;;;6.70;99.90;;;;;;5035414;28;20292;-68
2022/03/28 02:36:50;;;;;;;0.88;0.88;;;7.00;99.90;;;;;;5017975;28;20543;-68
2022/03/28 02:39:16;;;;;;;1.05;1.02;;;7.10;99.90;;;;;;5034302;28;20213;-68
2022/03/28 02:41:42;;;;;;;0.82;0.82;;;7.20;99.90;;;;;;5035323;28;20187;-68
2022/03/28 02:44:07;;;;;;;0.60;0.60;;;7.10;99.90;;;;;;5035555;28;20324;-68
2022/03/28 02:46:33;;;;;;;0.70;0.70;;;7.00;99.90;;;;;;5017632;28;20233;-68
2022/03/28 02:48:59;;;;;;;0.60;0.60;;;7.00;99.90;;;;;;5035402;28;20190;-68
2022/03/28 02:51:24;;;;;;;0.70;0.70;;;7.10;99.90;;;;;;5035094;28;20194;-69
2022/03/28 02:53:50;;;;;;;0.70;0.70;;;6.90;99.90;;;;;;5035234;28;20194;-68
2022/03/28 02:56:16;;;;;;;0.75;0.75;;;7.00;99.90;;;;;;5035290;28;20182;-68
2022/03/28 02:58:41;;;;;;;0.80;0.80;;;7.10;99.90;;;;;;5034898;28;20205;-68
2022/03/28 03:01:07;;;;;;;1.10;1.10;;;7.30;99.90;;;;;;5034238;28;20221;-68
2022/03/28 03:03:33;;;;;;;0.70;0.70;;;7.30;99.90;;;;;;5016889;28;20205;-68
2022/03/28 03:05:58;;;;;;;2.33;1.42;;;7.30;99.90;;;;;;5035133;28;20276;-68
2022/03/28 03:08:24;;;;;;;1.23;1.13;;;7.40;99.90;;;;;;5034845;28;20552;-68
2022/03/28 03:10:50;;;;;;;0.60;0.60;;;7.30;99.90;;;;;;5034870;28;20257;-68
2022/03/28 03:13:15;;;;;;;0.73;0.73;;;7.30;99.90;;;;;;5035002;28;20557;-68
2022/03/28 03:15:41;;;;;;;0.75;0.75;;;7.30;99.90;;;;;;5034731;28;20673;-68
2022/03/28 03:18:07;;;;;;;1.20;1.02;;;7.30;99.90;;;;;;5033962;28;20205;-68
2022/03/28 03:20:33;;;;;;;1.15;1.10;;;7.20;99.90;;;;;;5014765;28;20238;-68
2022/03/28 03:23:00;;;;;;;0.70;0.70;;;7.20;99.90;;;;;;5014884;28;20218;-68
2022/03/28 03:25:25;;;;;;;0.70;0.70;;;7.30;99.90;;;;;;4997250;28;20206;-68
2022/03/28 03:27:51;;;;;;;2.38;1.27;;;7.30;99.90;;;;;;5014915;28;20187;-68
2022/03/28 03:30:19;;;;;;;1.40;1.10;;;7.30;99.90;;;;;;5005485;28;20543;-68
2022/03/28 03:32:45;;;;;;;0.60;0.60;;;7.40;99.90;;;;;;5034660;28;20649;-68
2022/03/28 03:35:11;;;;;;;0.82;0.82;;;7.40;99.90;;;;;;5033352;28;20198;-69
2022/03/28 03:37:38;;;;;;;0.80;0.80;;;7.40;99.90;;;;;;5034420;28;20190;-69
2022/03/28 03:40:05;;;;;;;0.85;0.85;;;7.40;99.90;;;;;;5034456;28;20209;-68
2022/03/28 03:42:33;;;;;;;0.82;0.82;;;7.50;99.90;;;;;;5034188;28;20194;-69
2022/03/28 03:45:01;;;;;;;7.15;1.20;;;7.40;99.90;;;;;;5033574;28;20680;-69
2022/03/28 03:47:27;;;;;;;0.88;0.88;;;7.50;99.90;;;;;;5034063;28;20194;-69
2022/03/28 03:49:52;;;;;;;0.50;0.50;;;7.50;99.90;;;;;;5033921;28;20688;-69
2022/03/28 03:52:18;;;;;;;0.60;0.60;;;7.50;99.90;;;;;;5034177;28;20556;-69
2022/03/28 03:54:44;;;;;;;0.63;0.63;;;7.50;99.90;;;;;;5016248;28;20218;-69
2022/03/28 03:57:10;;;;;;;0.80;0.80;;;7.60;99.90;;;;;;5034357;28;20202;-69
2022/03/28 03:59:36;;;;;;;0.70;0.70;;;7.70;99.90;;;;;;5034080;28;20285;-69
2022/03/28 04:02:01;;;;;;;2.00;1.42;;;7.60;99.90;;;;;;5033777;28;20218;-69
2022/03/28 04:04:27;;;;;;;0.70;0.70;;;7.50;99.90;;;;;;5033775;28;20186;-69
2022/03/28 04:06:53;;;;;;;0.80;0.80;;;7.50;99.90;;;;;;5033862;28;20190;-69
2022/03/28 04:09:19;;;;;;;1.00;0.90;;;7.50;99.90;;;;;;5033678;28;20201;-69
2022/03/28 04:11:45;;;;;;;0.63;0.63;;;7.50;99.90;;;;;;5033553;28;20305;-69
2022/03/28 04:14:10;;;;;;;0.77;0.77;;;7.50;99.90;;;;;;5033670;28;20281;-69
2022/03/28 04:16:36;;;;;;;0.60;0.60;;;7.50;99.90;;;;;;5033427;28;20241;-69
2022/03/28 04:19:02;;;;;;;0.70;0.70;;;7.40;99.90;;;;;;5033617;28;20711;-69
2022/03/28 04:21:27;;;;;;;1.63;1.48;;;7.40;99.90;;;;;;5033325;28;20193;-68
2022/03/28 04:23:53;;;;;;;4.03;1.55;;;7.40;99.90;;;;;;5032295;28;20195;-69
2022/03/28 04:26:19;;;;;;;0.70;0.70;;;7.50;99.90;;;;;;5033382;28;20190;-69
2022/03/28 04:28:44;;;;;;;0.75;0.75;;;7.40;99.90;;;;;;5033543;28;20601;-69
2022/03/28 04:31:10;;;;;;;2.20;1.27;;;7.50;99.90;;;;;;5033235;28;20230;-68
2022/03/28 04:33:37;;;;;;;0.60;0.60;;;7.40;99.90;;;;;;5033190;28;20560;-68
2022/03/28 04:36:03;;;;;;;0.90;0.90;;;7.40;99.90;;;;;;5033378;28;20190;-68
2022/03/28 04:38:32;;;;;;;0.80;0.80;;;7.40;99.90;;;;;;5033173;28;20209;-68
2022/03/28 04:40:58;;;;;;;1.33;1.20;;;7.40;99.90;;;;;;5033175;28;20206;-68
2022/03/28 04:43:24;;;;;;;0.70;0.70;;;7.40;99.90;;;;;;5015292;28;20326;-68
2022/03/28 04:45:49;;;;;;;16.00;1.60;;;7.50;99.90;;;;;;5033210;28;20244;-68
2022/03/28 04:48:15;;;;;;;1.30;1.23;;;7.50;99.90;;;;;;5031711;28;20198;-68
2022/03/28 04:50:50;;;;;;;0.60;0.60;;;7.40;99.90;;;;;;5032879;28;20202;-68
2022/03/28 04:53:17;;;;;;;0.70;0.70;;;7.40;99.90;;;;;;5035601;28;20212;-69
2022/03/28 04:55:43;;;;;;;0.70;0.70;;;7.30;99.90;;;;;;5034785;28;20197;-69
2022/03/28 04:58:08;;;;;;;1.13;1.02;;;7.30;99.90;;;;;;5034962;28;20220;-69
2022/03/28 05:00:34;;;;;;;0.70;0.70;;;7.30;99.90;;;;;;5052454;28;20205;-70
2022/03/28 05:03:00;;;;;;;0.82;0.82;;;7.40;99.90;;;;;;5052761;28;20247;-69
2022/03/28 05:05:25;;;;;;;0.82;0.82;;;7.40;99.90;;;;;;5052569;28;20242;-69
2022/03/28 05:07:51;;;;;;;0.90;0.90;;;7.40;99.90;;;;;;5052749;28;20193;-69
2022/03/28 05:10:17;;;;;;;1.92;1.67;;;7.40;99.90;;;;;;5052516;28;20295;-69
2022/03/28 05:12:43;;;;;;;1.00;0.93;;;7.50;99.90;;;;;;5034598;28;20261;-69
2022/03/28 05:15:09;;;;;;;0.73;0.73;;;7.40;99.90;;;;;;5032778;28;20648;-69
2022/03/28 05:17:35;;;;;;;0.70;0.70;;;7.50;99.90;;;;;;5032625;28;20240;-69
2022/03/28 05:20:01;;;;;;;3.00;1.90;;;7.50;99.90;;;;;;5031293;28;20245;-69
2022/03/28 05:22:27;;;;;;;0.80;0.80;;;7.50;99.90;;;;;;5032132;28;20190;-69
2022/03/28 05:24:54;;;;;;;1.38;1.27;;;7.60;99.90;;;;;;5014907;28;20653;-69
2022/03/28 05:27:21;;;;;;;0.70;0.70;;;7.60;99.90;;;;;;5032455;28;20201;-69
2022/03/28 05:29:47;;;;;;;0.90;0.90;;;7.60;99.90;;;;;;5032380;28;20224;-69
2022/03/28 05:32:13;;;;;;;0.60;0.60;;;7.60;99.90;;;;;;5032631;28;20206;-69
2022/03/28 05:34:39;;;;;;;0.90;0.90;;;7.70;99.90;;;;;;5032487;28;20212;-69
2022/03/28 05:37:09;;;;;;;0.93;0.93;;;7.70;99.90;;;;;;5032583;28;20202;-69
2022/03/28 05:39:36;;;;;;;2.50;1.35;;;7.70;99.90;;;;;;5014659;28;20221;-69
2022/03/28 05:42:02;;;;;;;0.75;0.75;;;7.70;99.90;;;;;;5032424;28;20190;-69
2022/03/28 05:44:28;;;;;;;0.80;0.80;;;7.70;99.90;;;;;;5014665;28;20194;-69
2022/03/28 05:46:54;;;;;;;1.00;1.00;;;7.60;99.90;;;;;;5014492;28;20194;-69
2022/03/28 05:49:22;;;;;;;0.85;0.85;;;7.60;99.90;;;;;;5052198;28;20189;-69
2022/03/28 05:51:48;;;;;;;1.05;0.95;;;7.60;99.90;;;;;;5051119;28;20663;-69
2022/03/28 05:54:14;;;;;;;0.70;0.70;;;7.60;99.90;;;;;;5052294;28;20193;-69
2022/03/28 05:56:40;;;;;;;0.63;0.63;;;7.60;99.90;;;;;;5034298;28;20274;-69
2022/03/28 05:59:09;;;;;;;1.05;1.05;;;7.70;99.90;;;;;;5052401;28;20198;-69
2022/03/28 06:01:35;;;;;;;0.90;0.90;;;7.70;99.90;;;;;;5051845;28;20198;-69
2022/03/28 06:04:01;;;;;;;1.80;1.20;;;7.80;99.90;;;;;;5052223;28;20190;-69
2022/03/28 06:06:27;;;;;;;0.93;0.93;;;7.90;99.90;;;;;;5051994;28;20198;-70
2022/03/28 06:08:53;;;;;;;0.85;0.85;;;7.90;99.90;;;;;;5019896;28;20198;-70
2022/03/28 06:11:20;;;;;;;0.80;0.80;;;7.90;99.90;;;;;;5017944;28;20287;-70
2022/03/28 06:13:45;;;;;;;0.95;0.95;;;7.90;99.90;;;;;;5034792;28;20194;-69
2022/03/28 06:16:11;;;;;;;0.65;0.65;;;7.90;99.90;;;;;;5036007;28;20570;-69
2022/03/28 06:18:37;;;;;;;0.70;0.70;;;7.90;99.90;;;;;;5017840;28;20198;-69
2022/03/28 06:21:02;;;;;;;0.90;0.90;;;8.10;99.90;;;;;;5034534;28;20252;-70
2022/03/28 06:23:28;;;;;;;0.70;0.70;;;8.30;99.90;;;;;;5035602;28;20237;-69
2022/03/28 06:25:54;;;;;;;0.80;0.80;;;8.40;99.90;;;;;;5035832;28;20530;-69
2022/03/28 06:28:20;;;;;;;0.88;0.88;;;8.50;99.90;;;;;;5034459;28;20221;-70
2022/03/28 06:30:45;;;;;;;0.70;0.70;;;8.70;99.90;;;;;;5035427;28;20205;-70
2022/03/28 06:33:12;;;;;;;0.80;0.80;;;8.80;99.90;;;;;;5035970;28;20281;-69
2022/03/28 06:35:40;;;;;;;1.23;1.13;;;8.90;99.90;;;;;;5035464;28;20198;-69
2022/03/28 06:38:06;;;;;;;0.60;0.60;;;9.10;99.90;;;;;;5035541;28;20190;-69
2022/03/28 06:40:32;;;;;;;0.90;0.90;;;9.20;99.90;;;;;;5035259;28;20202;-69
2022/03/28 06:42:58;;;;;;;0.60;0.60;;;9.40;99.90;;;;;;5043756;28;20193;-69
2022/03/28 06:45:24;;;;;;;1.98;1.42;;;9.60;99.90;;;;;;5055171;28;20182;-69
2022/03/28 06:48:05;;;;;;;0.88;0.88;;;9.60;99.90;;;;;;5056097;28;20299;-70
2022/03/28 06:50:30;;;;;;;1.15;1.05;;;9.60;99.90;;;;;;5036421;28;20205;-68
2022/03/28 06:53:37;;;;;;;3.60;1.85;;;9.50;99.90;;;;;;5037945;28;20285;-69
2022/03/28 06:56:29;;;;;;;0.70;0.70;;;9.50;99.90;;;;;;5035322;28;20198;-69
2022/03/28 06:58:55;;;;;;;0.70;0.70;;;9.40;99.90;;;;;;5034591;28;20206;-70
2022/03/28 07:01:48;;;;;;;0.85;0.85;;;9.30;99.90;;;;;;5055240;28;20227;-69
2022/03/28 07:04:21;;;;;;;1.38;1.17;;;9.40;99.90;;;;;;5044560;28;20250;-69
2022/03/28 07:06:48;;;;;;;0.70;0.70;;;9.30;99.90;;;;;;5017106;28;20267;-68
2022/03/28 07:09:20;;;;;;;0.70;0.70;;;9.30;99.90;;;;;;5018169;28;20723;-70
2022/03/28 07:11:46;;;;;;;0.50;0.50;;;9.20;99.90;;;;;;5017493;28;20236;-70
2022/03/28 07:14:16;;;;;;;0.68;0.68;;;9.20;99.90;;;;;;5017218;28;20198;-70
2022/03/28 07:19:57;;;;;;;0.70;0.70;;;9.20;99.90;;;;;;5009668;28;20246;-70
2022/03/28 07:22:23;;;;;;;0.80;0.80;;;9.10;99.90;;;;;;5014832;28;20661;-70
2022/03/28 07:24:52;;;;;;;1.38;1.27;;;9.20;99.90;;;;;;5013594;28;20602;-70
2022/03/28 07:27:17;;;;;;;1.02;0.90;;;9.10;99.90;;;;;;4997279;28;20199;-70
2022/03/28 07:29:43;;;;;;;10.52;1.40;;;9.20;99.90;;;;;;5019153;28;20221;-70
2022/03/28 07:32:09;;;;;;;0.75;0.75;;;9.10;99.90;;;;;;5016869;28;20221;-70
2022/03/28 07:35:19;;;;;;;1.27;1.17;;;9.10;99.90;;;;;;5034602;28;20256;-71
2022/03/28 07:37:45;;;;;;;0.75;0.73;;;9.10;99.90;;;;;;5004162;28;20336;-69
2022/03/28 07:40:36;;;;;;;0.60;0.60;;;9.00;99.90;;;;;;5018713;28;20263;-71
2022/03/28 07:43:02;;;;;;;0.75;0.70;;;9.10;99.90;;;;;;5034573;28;20193;-70
2022/03/28 07:46:08;;;;;;;;;;;;;;;;;;;;;
2022/03/28 07:51:34;;;;;;;0.82;0.82;;;9.10;99.90;;;;;;5016615;28;20206;-71
2022/03/28 07:54:00;;;;;;;0.80;0.80;;;9.10;99.90;;;;;;5014384;28;20198;-70
2022/03/28 07:56:25;;;;;;;0.70;0.70;;;9.10;99.90;;;;;;5014170;28;20198;-70
2022/03/28 07:58:51;;;;;;;1.08;1.05;;;9.10;99.90;;;;;;5014326;28;20199;-70
2022/03/28 08:01:17;;;;;;;0.90;0.90;;;9.10;99.90;;;;;;5030278;28;20213;-71
2022/03/28 08:03:43;;;;;;;0.70;0.70;;;9.10;99.90;;;;;;5032865;28;20198;-70
2022/03/28 08:06:08;;;;;;;1.80;1.35;;;9.10;99.90;;;;;;5032612;28;20197;-70
2022/03/28 08:08:36;;;;;;;1.30;1.20;;;9.20;99.90;;;;;;5033695;28;20578;-70
2022/03/28 08:11:07;;;;;;;0.95;0.90;;;9.10;99.90;;;;;;5033474;28;20694;-70
2022/03/28 08:13:34;;;;;;;0.60;0.60;;;9.20;99.90;;;;;;5033620;28;20190;-70
2022/03/28 08:15:59;;;;;;;0.60;0.60;;;9.20;99.90;;;;;;5016054;28;20198;-70
2022/03/28 08:18:26;;;;;;;0.80;0.80;;;9.20;99.90;;;;;;5033570;28;20205;-70
2022/03/28 08:20:53;;;;;;;1.85;1.35;;;9.30;99.90;;;;;;5015821;28;20600;-70
2022/03/28 08:23:20;;;;;;;0.80;0.80;;;9.20;99.90;;;;;;5033462;28;20190;-70
2022/03/28 08:25:47;;;;;;;0.80;0.80;;;9.20;99.90;;;;;;5033596;28;20332;-70
2022/03/28 08:28:13;;;;;;;0.90;0.90;;;9.30;99.90;;;;;;5015820;28;20620;-70
2022/03/28 08:30:39;;;;;;;0.90;0.90;;;9.30;99.90;;;;;;5031118;28;20665;-70
2022/03/28 08:33:05;;;;;;;0.60;0.60;;;9.40;99.90;;;;;;5015756;28;20256;-70
2022/03/28 08:35:31;;;;;;;0.93;0.90;;;9.40;99.90;;;;;;5033094;28;20636;-70
2022/03/28 08:37:58;;;;;;;0.60;0.60;;;9.40;99.90;;;;;;5033410;28;20222;-70
2022/03/28 08:40:24;;;;;;;0.70;0.70;;;9.40;99.90;;;;;;5033014;28;20329;-70
2022/03/28 08:42:49;;;;;;;0.80;0.80;;;9.40;99.90;;;;;;5033318;28;20237;-70
2022/03/28 08:45:19;;;;;;;1.10;1.10;;;9.30;99.90;;;;;;5015413;28;20669;-70
2022/03/28 08:47:47;;;;;;;8.13;2.15;;;9.30;99.90;;;;;;5015461;28;20198;-70
2022/03/28 08:50:13;;;;;;;1.13;1.10;;;9.30;99.90;;;;;;5033226;28;20289;-70
2022/03/28 08:52:43;;;;;;;1.13;1.02;;;9.30;99.90;;;;;;5033003;28;20229;-70
2022/03/28 08:55:13;;;;;;;0.80;0.80;;;9.30;99.90;;;;;;5033063;28;20230;-70
2022/03/28 08:57:39;;;;;;;1.13;0.98;;;9.30;99.90;;;;;;5014950;28;20201;-70
2022/03/28 09:00:10;;;;;;;1.00;1.00;;;9.30;99.90;;;;;;5032987;28;20669;-70
2022/03/28 09:02:42;;;;;;;0.90;0.90;;;9.40;99.90;;;;;;5032651;28;20189;-70
2022/03/28 09:05:15;;;;;;;0.80;0.80;;;9.40;99.90;;;;;;5032899;28;20190;-70
2022/03/28 09:07:42;;;;;;;1.48;1.30;;;9.40;99.90;;;;;;5032407;28;20210;-71
2022/03/28 09:10:14;;;;;;;0.60;0.60;;;9.50;99.90;;;;;;5014903;28;20240;-71
2022/03/28 09:13:06;;;;;;;0.80;0.80;;;9.60;99.90;;;;;;5032677;28;20255;-70
2022/03/28 09:15:50;;;;;;;0.60;0.60;;;9.80;99.90;;;;;;5032659;28;20688;-70
2022/03/28 09:18:23;;;;;;;0.60;0.60;;;9.80;99.90;;;;;;5032883;28;20530;-71
2022/03/28 09:21:16;;;;;;;0.70;0.70;;;9.90;99.90;;;;;;5031551;28;20304;-71
2022/03/28 09:23:49;;;;;;;1.20;1.13;;;10.00;99.90;;;;;;5004788;28;20210;-71
2022/03/28 09:26:25;;;;;;;0.60;0.60;;;10.00;99.90;;;;;;5032679;28;20200;-70
2022/03/28 09:28:53;;;;;;;0.70;0.70;;;10.10;99.90;;;;;;5032712;28;20194;-70
2022/03/28 09:31:21;;;;;;;0.60;0.60;;;10.10;99.90;;;;;;5019183;28;20317;-70
2022/03/28 09:33:57;;;;;;;0.60;0.60;;;10.20;99.90;;;;;;5014982;28;20567;-70
2022/03/28 09:36:49;;;;;;;0.50;0.50;;;10.30;99.90;;;;;;5032448;28;20676;-71
2022/03/28 09:39:18;;;;;;;0.60;0.60;;;10.30;99.90;;;;;;5032439;28;20204;-70
2022/03/28 09:41:46;;;;;;;0.60;0.60;;;10.30;99.90;;;;;;5032983;28;20673;-71
2022/03/28 09:44:12;;;;;;;0.60;0.60;;;10.40;99.90;;;;;;5035348;28;20194;-71
2022/03/28 09:46:37;;;;;;;0.60;0.60;;;10.40;97.80;;;;;;5018631;28;20202;-70
2022/03/28 09:49:04;;;;;;;0.80;0.80;;;10.40;94.40;;;;;;5035126;28;20707;-71
2022/03/28 09:51:34;;;;;;;0.60;0.60;;;10.50;92.50;;;;;;5018542;28;20224;-71
2022/03/28 09:54:00;;;;;;;0.85;0.85;;;10.60;89.80;;;;;;5036324;28;20201;-71
2022/03/28 09:56:26;;;;;;;0.60;0.60;;;10.70;77.30;;;;;;5036201;28;20277;-71
2022/03/28 09:58:59;;;;;;;0.75;0.75;;;10.80;75.00;;;;;;5035051;28;20194;-71
2022/03/28 10:01:39;;;;;;;0.60;0.60;;;11.00;74.10;;;;;;5018071;28;20260;-71
2022/03/28 10:04:08;;;;;;;0.52;0.52;;;11.00;69.20;;;;;;5018332;28;20533;-71
2022/03/28 10:06:35;;;;;;;0.50;0.50;;;11.20;69.10;;;;;;5035958;28;20214;-71
2022/03/28 10:09:02;;;;;;;0.60;0.60;;;11.30;66.60;;;;;;5036112;28;20664;-71
2022/03/28 10:11:28;;;;;;;0.50;0.50;;;11.50;68.60;;;;;;5018024;28;20233;-71
2022/03/28 10:13:55;;;;;;;0.57;0.57;;;11.60;66.60;;;;;;5036093;28;20695;-71
2022/03/28 10:16:21;;;;;;;0.50;0.50;;;11.60;66.90;;;;;;5018655;28;20255;-71
2022/03/28 10:18:50;;;;;;;0.50;0.50;;;11.70;67.20;;;;;;5056041;28;20190;-71
2022/03/28 10:21:18;;;;;;;0.50;0.50;;;12.00;67.60;;;;;;5055919;28;20220;-71
2022/03/28 10:24:07;;;;;;;0.50;0.50;;;12.40;68.10;;;;;;5040602;28;20195;-71
2022/03/28 10:26:36;;;;;;;0.50;0.50;;;12.60;68.80;;;;;;5035648;28;20237;-71
2022/03/28 10:29:13;;;;;;;0.50;0.50;;;12.40;64.50;;;;;;5035636;28;20202;-71
2022/03/28 10:32:00;;;;;;;0.50;0.50;;;12.30;65.10;;;;;;5035366;28;20657;-70
2022/03/28 10:34:48;;;;;;;0.50;0.50;;;12.40;63.60;;;;;;5034283;28;20205;-71
2022/03/28 10:37:34;;;;;;;0.50;0.50;;;12.60;62.10;;;;;;5034373;28;20666;-71
2022/03/28 10:40:12;;;;;;;0.50;0.50;;;12.60;60.10;;;;;;5035604;28;20202;-71
2022/03/28 10:42:38;;;;;;;0.50;0.50;;;12.30;59.30;;;;;;5035309;28;20198;-71
2022/03/28 10:45:10;;;;;;;0.60;0.60;;;12.60;63.10;;;;;;5035524;28;20260;-71
2022/03/28 10:47:44;;;;;;;0.50;0.50;;;12.80;59.60;;;;;;5017370;28;20213;-72
2022/03/28 10:50:12;;;;;;;0.50;0.50;;;12.70;59.30;;;;;;5035294;28;20237;-71
2022/03/28 10:52:38;;;;;;;0.50;0.50;;;12.80;58.90;;;;;;5017171;28;20298;-71
2022/03/28 10:55:09;;;;;;;0.50;0.50;;;12.90;58.20;;;;;;5017473;28;20297;-72
2022/03/28 10:57:36;;;;;;;0.50;0.50;;;13.00;57.30;;;;;;5035104;28;20677;-71
2022/03/28 11:00:12;;;;;;;0.50;0.50;;;12.90;58.30;;;;;;5035011;28;20206;-71
2022/03/28 11:02:38;;;;;;;0.50;0.50;;;13.00;59.00;;;;;;5033603;28;20248;-71
2022/03/28 11:05:12;;;;;;;0.50;0.50;;;13.30;59.80;;;;;;5035105;28;20653;-72
2022/03/28 11:07:37;;;;;;;0.50;0.50;;;13.70;59.90;;;;;;5017188;28;20568;-71
2022/03/28 11:10:08;;;;;;;1.27;1.17;;;13.70;58.70;;;;;;5034899;28;20229;-71
2022/03/28 11:12:39;;;;;;;0.47;0.47;;;13.70;56.40;;;;;;5033439;28;20194;-71
2022/03/28 11:15:16;;;;;;;0.50;0.50;;;13.50;57.80;;;;;;5017145;28;20228;-71
2022/03/28 11:18:04;;;;;;;0.43;0.43;;;13.40;57.00;;;;;;5034755;28;20202;-71
2022/03/28 11:20:47;;;;;;;0.50;0.50;;;13.40;57.10;;;;;;5034483;28;20253;-73
2022/03/28 11:23:18;;;;;;;0.50;0.50;;;13.30;56.70;;;;;;5034530;28;20194;-71
2022/03/28 11:25:51;;;;;;;0.55;0.55;;;13.40;56.40;;;;;;5034786;28;20698;-71
2022/03/28 11:28:23;;;;;;;0.50;0.50;;;13.30;55.50;;;;;;5017029;28;20202;-71
2022/03/28 11:30:52;;;;;;;0.50;0.50;;;13.20;56.30;;;;;;5034560;28;20667;-72
2022/03/28 11:33:21;;;;;;;0.65;0.65;;;13.10;57.40;;;;;;5034617;28;20190;-72
2022/03/28 11:35:59;;;;;;;0.50;0.50;;;13.40;58.30;;;;;;5034580;28;20710;-72
2022/03/28 11:38:30;;;;;;;0.50;0.50;;;13.60;56.60;;;;;;5034338;28;20273;-72
2022/03/28 11:40:57;;;;;;;0.40;0.40;;;13.50;56.50;;;;;;5034510;28;20252;-72
2022/03/28 11:43:33;;;;;;;0.50;0.50;;;13.60;56.70;;;;;;5032790;28;20215;-72
2022/03/28 11:46:01;;;;;;;0.50;0.50;;;13.60;58.10;;;;;;5034263;28;20202;-72
2022/03/28 11:48:27;;;;;;;0.50;0.50;;;13.90;57.00;;;;;;5016346;28;20646;-71
2022/03/28 11:50:55;;;;;;;0.43;0.43;;;13.70;54.80;;;;;;5016622;28;20208;-71
2022/03/28 11:53:21;;;;;;;0.52;0.52;;;13.20;55.10;;;;;;5016350;28;20232;-71
2022/03/28 11:55:56;;;;;;;0.50;0.50;;;13.10;56.30;;;;;;5034147;28;20209;-71
2022/03/28 11:58:35;;;;;;;0.50;0.50;;;13.10;56.60;;;;;;5035744;28;20644;-71
2022/03/28 12:01:07;;;;;;;0.50;0.50;;;13.50;57.10;;;;;;5033968;28;20201;-71
2022/03/28 12:03:34;;;;;;;0.50;0.50;;;13.30;54.40;;;;;;5033838;28;20205;-71
2022/03/28 12:06:00;;;;;;;0.50;0.50;;;13.20;57.50;;;;;;5031824;28;20628;-71
2022/03/28 12:08:28;;;;;;;0.50;0.50;;;13.50;58.40;;;;;;5033740;28;20186;-71
2022/03/28 12:10:54;;;;;;;0.52;0.52;;;13.50;55.60;;;;;;5033793;28;20222;-71
2022/03/28 12:13:22;;;;;;;0.50;0.50;;;13.40;56.30;;;;;;5033735;28;20249;-71
2022/03/28 12:15:49;;;;;;;0.50;0.50;;;13.40;57.20;;;;;;5021274;28;20678;-71
2022/03/28 12:18:17;;;;;;;0.50;0.50;;;13.70;58.30;;;;;;5014062;28;20625;-71
2022/03/28 12:20:46;;;;;;;0.40;0.40;;;14.00;58.30;;;;;;4996065;28;20575;-71
2022/03/28 12:23:14;;;;;;;0.40;0.40;;;14.20;55.80;;;;;;4996206;28;20542;-71
2022/03/28 12:25:50;;;;;;;0.40;0.40;;;14.20;55.80;;;;;;5070282;28;20556;-71
2022/03/28 12:28:24;;;;;;;0.50;0.50;;;13.90;56.00;;;;;;5070153;28;20702;-71
2022/03/28 12:30:53;;;;;;;0.40;0.40;;;13.80;55.90;;;;;;5085502;28;20227;-71
2022/03/28 12:33:26;;;;;;;0.50;0.50;;;13.60;56.30;;;;;;5069902;28;20267;-71
2022/03/28 12:35:53;;;;;;;0.50;0.50;;;13.60;57.30;;;;;;5070038;28;20188;-71
2022/03/28 12:38:25;;;;;;;0.50;0.50;;;13.90;56.60;;;;;;5069915;28;20221;-71
2022/03/28 12:40:53;;;;;;;0.50;0.50;;;14.10;57.40;;;;;;5069886;28;20195;-71
2022/03/28 12:43:23;;;;;;;0.50;0.50;;;14.40;56.30;;;;;;5069723;28;20189;-71
2022/03/28 12:45:51;;;;;;;0.50;0.50;;;14.20;53.60;;;;;;5068555;28;20193;-70
2022/03/28 12:48:17;;;;;;;0.50;0.50;;;13.60;56.20;;;;;;5069758;28;20623;-71
2022/03/28 12:50:57;;;;;;;0.47;0.47;;;13.30;55.70;;;;;;5068300;28;20220;-71
2022/03/28 12:53:28;;;;;;;0.60;0.60;;;13.40;56.30;;;;;;5069255;28;20280;-71
2022/03/28 12:55:54;;;;;;;0.40;0.40;;;13.50;55.90;;;;;;5069665;28;20334;-71
2022/03/28 12:58:35;;;;;;;0.43;0.43;;;13.50;56.90;;;;;;5084999;28;20193;-72
2022/03/28 13:01:06;;;;;;;0.50;0.50;;;13.60;55.40;;;;;;5069433;28;20216;-71
2022/03/28 13:03:33;;;;;;;0.40;0.40;;;13.40;55.50;;;;;;5069235;28;20189;-71
2022/03/28 13:06:10;;;;;;;0.50;0.50;;;12.90;54.60;;;;;;5069311;28;20239;-71
2022/03/28 13:08:40;;;;;;;0.50;0.50;;;12.50;56.50;;;;;;5084711;28;20201;-71